Bemidji Regional Airport
KBJI : now visible

Airfield :











YOU CAN JOIN US ON...

 
LOGIN :

Register | Disclaimer

   EN    FR    IT 

 









Legend :    VFR   Marginal VFR   IFR   Intensive IFR   Very Intensive IFR
Visi :
Ceiling :
>= 8 km
>= 3000ft
5 to 8 km
1000 to 3000 ft
1500m to 5 km
500 to 1000 ft
800 to 1500m
200 to 500 ft
< 800m
< 200 ft
Symbols :   Thunderstorms  Fog  Heavy snow  Heavy precipitations  Wind > 20 kt






- Airport Elevation : 1391 ft


KBJI - Bemidji Regional

CURRENT METAR :
  • 050635Z AUTO 20004KT 10SM CLR 15/13 A3003 RMK AO2 T01470128

EXPIRED METARs :
  • 050615Z AUTO 21004KT 10SM CLR 15/13 A3004 RMK AO2 T01500133
  • 050555Z AUTO 22005KT 10SM CLR 15/13 A3004 RMK AO2 T01510130 10233 20120 402490066
  • 050535Z AUTO 22004KT 10SM CLR 14/13 A3004 RMK AO2 T01420133
  • 050515Z AUTO 00000KT 10SM CLR 12/11 A3005 RMK AO2 T01220106
  • 050455Z AUTO 00000KT 10SM CLR 13/12 A3005 RMK AO2 T01340117
  • 050435Z AUTO 00000KT 10SM SCT055 13/12 A3005 RMK AO2 T01300115
  • 050415Z AUTO 00000KT 10SM SCT055 13/11 A3005 RMK AO2 T01280111

TAF KBJI
Valid from the 05 at 06:00 until the 06 at 06:00 UTC


050520Z 0506/0606 VRB04KT P6SM SCT250
FM051500 16008KT P6SM BKN180
FM060000 18007KT P6SM BKN100
KZMP FIR / North America



MET'MAP, your aeronautical weather chart ! - Copyright ORBIFLY December 2007 - Disclaimer

ORBIFLY MET'MAP TEAM :

Programming & Development : Alexandra Zaïnal
Concept & original design : Baudouin d'Aumeries
Assistance for programming : Marc-Olivier Méhu
Technical & hardware support : Manuel Goepfert

Contact : metmap@orbifly.com




SOURCES & CREDITS :

   NOAA       Earth
Advisory